createdAt,value
2023-03-28T00:01:48.174Z,4.07
2023-03-28T00:04:23.542Z,3.83
2023-03-28T00:06:53.955Z,2.63
2023-03-28T00:09:24.180Z,3.53
2023-03-28T00:11:53.993Z,3.10
2023-03-28T00:14:24.205Z,3.43
2023-03-28T00:16:54.236Z,3.03
2023-03-28T00:19:25.971Z,3.20
2023-03-28T00:21:58.142Z,3.33
2023-03-28T00:24:28.475Z,4.37
2023-03-28T00:27:01.159Z,3.40
2023-03-28T00:29:31.687Z,2.93
2023-03-28T00:32:02.040Z,3.67
2023-03-28T00:34:33.648Z,3.30
2023-03-28T00:37:04.187Z,4.37
2023-03-28T00:39:35.009Z,23.73
2023-03-28T00:42:05.168Z,18.00
2023-03-28T00:44:51.325Z,6.50
2023-03-28T00:47:40.023Z,5.33
2023-03-28T00:50:17.087Z,7.23
2023-03-28T00:52:52.631Z,7.27
2023-03-28T00:55:27.246Z,12.40
2023-03-28T00:57:57.877Z,4.20
2023-03-28T01:00:29.636Z,4.33
2023-03-28T01:03:03.555Z,3.90
2023-03-28T01:05:37.138Z,5.37
2023-03-28T01:08:12.986Z,4.03
2023-03-28T01:10:44.354Z,3.50
2023-03-28T01:13:16.500Z,2.43
2023-03-28T01:15:48.064Z,2.73
2023-03-28T01:18:19.090Z,2.40
2023-03-28T01:21:17.167Z,2.87
2023-03-28T01:24:23.746Z,3.53
2023-03-28T01:26:56.008Z,3.63
2023-03-28T01:30:04.644Z,4.60
2023-03-28T01:33:19.200Z,3.70
2023-03-28T01:36:34.172Z,2.30
2023-03-28T01:39:13.594Z,4.00
2023-03-28T01:41:50.688Z,2.80
2023-03-28T01:44:31.770Z,3.13
2023-03-28T01:47:07.396Z,3.47
2023-03-28T01:49:46.640Z,2.17
2023-03-28T01:52:22.181Z,4.57
2023-03-28T01:54:58.957Z,2.90
2023-03-28T01:57:34.877Z,3.97
2023-03-28T02:00:14.258Z,2.30
2023-03-28T02:03:13.124Z,3.63
2023-03-28T02:05:58.243Z,3.43
2023-03-28T02:08:31.546Z,3.37
2023-03-28T02:11:35.934Z,3.70
2023-03-28T02:14:31.498Z,2.40
2023-03-28T02:17:22.660Z,2.63
2023-03-28T02:20:13.068Z,3.03
2023-03-28T02:23:08.372Z,2.60
2023-03-28T02:25:50.091Z,2.67
2023-03-28T02:28:43.228Z,2.10
2023-03-28T02:31:35.288Z,8.13
2023-03-28T02:34:06.073Z,17.80
2023-03-28T02:36:48.295Z,17.13
2023-03-28T02:39:40.119Z,12.90
2023-03-28T02:42:30.556Z,3.47
2023-03-28T02:45:20.394Z,2.40
2023-03-28T02:47:55.820Z,2.30
2023-03-28T02:50:28.519Z,4.20
2023-03-28T02:53:03.347Z,4.43
2023-03-28T02:55:38.797Z,2.70
2023-03-28T02:58:21.917Z,2.40
2023-03-28T03:00:54.500Z,1.90
2023-03-28T03:03:26.198Z,2.20
2023-03-28T03:05:58.650Z,2.60
2023-03-28T03:08:30.488Z,2.33
2023-03-28T03:11:00.693Z,3.80
2023-03-28T03:13:30.615Z,2.93
2023-03-28T03:16:06.489Z,2.30
2023-03-28T03:18:37.411Z,3.00
2023-03-28T03:21:08.654Z,2.40
2023-03-28T03:23:39.698Z,2.47
2023-03-28T03:26:10.126Z,2.33
2023-03-28T03:28:46.595Z,2.23
2023-03-28T03:31:20.206Z,2.57
2023-03-28T03:34:04.025Z,3.47
2023-03-28T03:36:40.898Z,2.80
2023-03-28T03:39:11.128Z,3.90
2023-03-28T03:41:42.462Z,4.33
2023-03-28T03:44:13.100Z,5.77
2023-03-28T03:46:45.232Z,2.50
2023-03-28T03:49:16.004Z,2.53
2023-03-28T03:51:46.225Z,4.50
2023-03-28T03:54:19.723Z,3.03
2023-03-28T03:56:49.859Z,2.57
2023-03-28T03:59:20.066Z,2.50
2023-03-28T04:01:53.442Z,2.67
2023-03-28T04:04:41.071Z,3.33
2023-03-28T04:07:24.208Z,3.07
2023-03-28T04:09:59.065Z,3.07
2023-03-28T04:12:31.721Z,4.13
2023-03-28T04:15:01.780Z,2.63
2023-03-28T04:17:37.194Z,3.23
2023-03-28T04:20:15.485Z,3.93
2023-03-28T04:23:02.108Z,2.67
2023-03-28T04:25:33.953Z,4.83
2023-03-28T04:28:16.572Z,3.40
2023-03-28T04:31:03.107Z,2.70
2023-03-28T04:33:47.519Z,3.30
2023-03-28T04:36:22.972Z,3.77
2023-03-28T04:39:03.225Z,3.13
2023-03-28T04:42:05.304Z,3.63
2023-03-28T04:44:54.872Z,3.83
2023-03-28T04:47:25.868Z,4.70
2023-03-28T04:49:57.450Z,4.23
2023-03-28T04:52:29.219Z,5.20
2023-03-28T04:54:59.961Z,4.37
2023-03-28T04:57:29.785Z,8.13
2023-03-28T05:00:10.451Z,4.20
2023-03-28T05:03:13.883Z,4.50
2023-03-28T05:05:56.232Z,4.90
2023-03-28T05:08:28.294Z,5.47
2023-03-28T05:10:58.728Z,3.97
2023-03-28T05:13:29.971Z,4.73
2023-03-28T05:16:11.597Z,3.50
2023-03-28T05:19:16.709Z,8.17
2023-03-28T05:22:17.237Z,4.87
2023-03-28T05:24:48.777Z,6.27
2023-03-28T05:27:20.642Z,6.00
2023-03-28T05:29:53.219Z,8.70
2023-03-28T05:32:23.972Z,6.63
2023-03-28T05:34:54.892Z,5.60
2023-03-28T05:37:29.096Z,6.97
2023-03-28T05:39:58.916Z,8.43
2023-03-28T05:42:28.924Z,7.07
2023-03-28T05:45:00.001Z,10.03
2023-03-28T05:47:35.968Z,10.13
2023-03-28T05:50:07.280Z,8.87
2023-03-28T05:52:39.753Z,6.20
2023-03-28T05:55:11.053Z,7.10
2023-03-28T05:57:43.056Z,9.90
2023-03-28T06:00:17.089Z,6.83
2023-03-28T06:02:56.426Z,8.20
2023-03-28T06:05:35.019Z,15.00
2023-03-28T06:08:10.964Z,18.87
2023-03-28T06:10:41.398Z,16.00
2023-03-28T06:13:32.934Z,9.97
2023-03-28T06:16:03.136Z,10.40
2023-03-28T06:18:35.969Z,8.77
2023-03-28T06:21:07.166Z,9.20
2023-03-28T06:23:39.139Z,7.47
2023-03-28T06:26:12.624Z,4.73
2023-03-28T06:28:44.888Z,8.03
2023-03-28T06:31:23.744Z,4.57
2023-03-28T06:33:54.250Z,4.00
2023-03-28T06:36:25.388Z,3.40
2023-03-28T06:38:58.901Z,4.00
2023-03-28T06:41:31.177Z,2.83
2023-03-28T06:44:01.275Z,4.33
2023-03-28T06:47:04.676Z,3.07
2023-03-28T06:49:35.317Z,2.30
2023-03-28T06:52:37.379Z,3.90
2023-03-28T06:55:12.313Z,3.27
2023-03-28T06:57:42.399Z,3.90
2023-03-28T07:00:24.529Z,3.83
2023-03-28T07:03:32.736Z,2.93
2023-03-28T07:06:07.682Z,3.47
2023-03-28T07:08:40.730Z,2.90
2023-03-28T07:11:13.044Z,2.53
2023-03-28T07:13:47.448Z,3.67
2023-03-28T07:16:18.883Z,2.40
2023-03-28T07:18:52.094Z,3.97
2023-03-28T07:21:27.647Z,2.10
2023-03-28T07:24:01.877Z,2.23
2023-03-28T07:26:43.347Z,2.60
2023-03-28T07:29:13.774Z,3.10
2023-03-28T07:31:44.044Z,2.00
2023-03-28T07:34:13.984Z,2.00
2023-03-28T07:36:48.544Z,2.50
2023-03-28T07:39:28.993Z,2.90
2023-03-28T07:42:04.323Z,2.40
2023-03-28T07:44:34.243Z,1.70
2023-03-28T07:47:04.884Z,2.83
2023-03-28T07:49:35.516Z,2.93
2023-03-28T07:52:08.560Z,2.27
2023-03-28T07:54:39.252Z,1.50
2023-03-28T07:57:12.339Z,1.77
2023-03-28T08:00:00.352Z,1.70
2023-03-28T08:02:31.056Z,4.47
2023-03-28T08:05:01.236Z,1.67
2023-03-28T08:07:34.601Z,2.13
2023-03-28T08:10:04.735Z,7.03
2023-03-28T08:12:37.428Z,1.60
2023-03-28T08:15:09.245Z,2.33
2023-03-28T08:17:39.327Z,3.20
2023-03-28T08:20:12.362Z,1.60
2023-03-28T08:22:42.484Z,2.03
2023-03-28T08:25:32.375Z,2.07
2023-03-28T08:28:07.082Z,1.97
2023-03-28T08:30:37.715Z,1.60
2023-03-28T08:33:07.967Z,1.80
2023-03-28T08:35:38.403Z,4.37
2023-03-28T08:38:19.894Z,1.60
2023-03-28T08:41:00.770Z,1.90
2023-03-28T08:44:02.997Z,2.63
2023-03-28T08:46:34.260Z,1.50
2023-03-28T08:49:08.553Z,1.50
2023-03-28T08:51:41.145Z,1.80
2023-03-28T08:54:18.330Z,1.50
2023-03-28T08:56:56.113Z,1.50
2023-03-28T08:59:37.202Z,1.70
2023-03-28T09:02:17.962Z,1.97
2023-03-28T09:04:51.478Z,1.30
2023-03-28T09:07:35.903Z,1.60
2023-03-28T09:10:19.514Z,1.53
2023-03-28T09:13:24.792Z,1.30
2023-03-28T09:16:10.996Z,1.43
2023-03-28T09:19:03.534Z,1.30
2023-03-28T09:21:49.024Z,1.40
2023-03-28T09:24:48.582Z,1.47
2023-03-28T09:27:26.124Z,1.60
2023-03-28T09:30:02.389Z,1.77
2023-03-28T09:32:38.510Z,1.37
2023-03-28T09:35:18.305Z,1.30
2023-03-28T09:37:53.229Z,1.33
2023-03-28T09:40:27.662Z,2.40
2023-03-28T09:43:33.393Z,1.40
2023-03-28T09:46:32.554Z,1.40
2023-03-28T09:49:19.422Z,2.13
2023-03-28T09:51:57.721Z,1.47
2023-03-28T09:54:32.446Z,1.40
2023-03-28T09:57:06.604Z,1.47
2023-03-28T09:59:51.735Z,1.40
2023-03-28T10:02:30.681Z,1.30
2023-03-28T10:05:07.055Z,1.63
2023-03-28T10:07:46.180Z,1.63
2023-03-28T10:10:32.551Z,3.00
2023-03-28T10:13:13.517Z,1.80
2023-03-28T10:15:50.708Z,2.67
2023-03-28T10:18:27.683Z,1.17
2023-03-28T10:21:19.922Z,1.40
2023-03-28T10:24:05.007Z,1.27
2023-03-28T10:26:35.830Z,1.37
2023-03-28T10:29:09.741Z,1.30
2023-03-28T10:31:42.553Z,1.30
2023-03-28T10:34:45.415Z,1.30
2023-03-28T10:37:39.811Z,2.23
2023-03-28T10:40:30.539Z,2.20
2023-03-28T10:43:41.373Z,2.03
2023-03-28T10:46:22.470Z,2.90
2023-03-28T10:49:18.172Z,1.80
2023-03-28T10:51:58.226Z,2.00
2023-03-28T10:54:44.822Z,1.90
2023-03-28T10:57:31.942Z,2.20
2023-03-28T11:00:10.260Z,2.63
2023-03-28T11:03:17.446Z,1.83
2023-03-28T11:06:05.798Z,1.93
2023-03-28T11:08:54.633Z,2.60
2023-03-28T11:11:51.689Z,2.80
2023-03-28T11:14:26.312Z,2.70
2023-03-28T11:17:05.240Z,1.60
2023-03-28T11:20:19.196Z,2.93
2023-03-28T11:23:13.681Z,1.93
2023-03-28T11:26:01.828Z,1.63
2023-03-28T11:29:14.594Z,2.73
2023-03-28T11:31:55.227Z,1.63
2023-03-28T11:34:28.688Z,2.70
2023-03-28T11:37:07.955Z,4.37
2023-03-28T11:39:46.153Z,3.13
2023-03-28T11:42:30.464Z,1.23
2023-03-28T11:45:07.481Z,2.07
2023-03-28T11:47:42.254Z,3.33
2023-03-28T11:50:20.929Z,2.07
2023-03-28T11:53:20.019Z,2.20
2023-03-28T11:56:07.354Z,3.00
2023-03-28T11:59:05.327Z,5.03
2023-03-28T12:01:42.268Z,2.50
2023-03-28T12:04:14.617Z,2.67
2023-03-28T12:07:02.461Z,1.90
2023-03-28T12:09:52.085Z,1.87
2023-03-28T12:12:27.210Z,1.97
2023-03-28T12:15:02.444Z,4.03
2023-03-28T12:17:49.942Z,2.67
2023-03-28T12:20:34.439Z,2.23
2023-03-28T12:23:12.329Z,2.00
2023-03-28T12:26:24.847Z,2.50
2023-03-28T12:28:59.066Z,2.03
2023-03-28T12:31:38.613Z,2.00
2023-03-28T12:34:20.709Z,2.77
2023-03-28T12:37:25.546Z,4.17
2023-03-28T12:40:13.416Z,2.83
2023-03-28T12:42:44.525Z,3.07
2023-03-28T12:45:22.711Z,2.97
2023-03-28T12:47:56.550Z,3.40
2023-03-28T12:50:32.078Z,2.53
2023-03-28T12:53:04.358Z,2.88
2023-03-28T12:55:48.599Z,4.63
2023-03-28T12:58:31.642Z,3.05
2023-03-28T13:01:31.064Z,2.28
2023-03-28T13:04:32.122Z,2.17
2023-03-28T13:07:18.502Z,4.33
2023-03-28T13:09:52.169Z,3.60
2023-03-28T13:12:31.406Z,3.10
2023-03-28T13:15:03.674Z,3.13
2023-03-28T13:17:38.203Z,2.20
2023-03-28T13:20:23.268Z,2.10
2023-03-28T13:22:58.820Z,2.50
2023-03-28T13:25:32.091Z,2.20
2023-03-28T13:28:03.042Z,4.55
2023-03-28T13:30:33.682Z,2.30
2023-03-28T13:33:05.348Z,2.33
2023-03-28T13:35:39.923Z,2.50
2023-03-28T13:38:19.080Z,2.22
2023-03-28T13:40:51.746Z,1.88
2023-03-28T13:43:25.662Z,2.95
2023-03-28T13:45:58.004Z,2.85
2023-03-28T13:48:32.087Z,2.22
2023-03-28T13:51:04.008Z,2.20
2023-03-28T13:53:46.931Z,2.67
2023-03-28T13:56:26.989Z,2.30
2023-03-28T13:58:59.362Z,3.40
2023-03-28T14:01:36.455Z,2.85
2023-03-28T14:04:17.921Z,4.63
2023-03-28T14:06:49.225Z,2.55
2023-03-28T14:09:24.802Z,2.80
2023-03-28T14:11:56.170Z,2.95
2023-03-28T14:14:31.517Z,2.80
2023-03-28T14:17:05.520Z,2.75
2023-03-28T14:19:39.395Z,3.03
2023-03-28T14:22:10.475Z,3.17
2023-03-28T14:24:42.431Z,2.70
2023-03-28T14:27:16.543Z,2.50
2023-03-28T14:29:57.831Z,2.95
2023-03-28T14:32:32.518Z,4.03
2023-03-28T14:35:21.727Z,2.80
2023-03-28T14:37:53.165Z,5.20
2023-03-28T14:40:33.279Z,3.42
2023-03-28T14:43:06.710Z,3.70
2023-03-28T14:45:41.896Z,3.97
2023-03-28T14:48:19.096Z,3.17
2023-03-28T14:50:52.194Z,2.78
2023-03-28T14:53:26.127Z,2.97
2023-03-28T14:56:02.196Z,3.08
2023-03-28T14:58:33.744Z,3.13
2023-03-28T15:01:05.245Z,2.47
2023-03-28T15:03:39.306Z,3.47
2023-03-28T15:06:13.542Z,2.47
2023-03-28T15:08:46.199Z,2.97
2023-03-28T15:11:22.775Z,3.67
2023-03-28T15:14:05.495Z,4.68
2023-03-28T15:16:41.259Z,3.13
2023-03-28T15:19:19.754Z,3.15
2023-03-28T15:21:57.028Z,4.45
2023-03-28T15:24:28.481Z,3.28
2023-03-28T15:27:02.515Z,3.40
2023-03-28T15:29:37.448Z,9.45
2023-03-28T15:32:09.909Z,3.95
2023-03-28T15:34:48.236Z,4.65
2023-03-28T15:37:22.444Z,5.68
2023-03-28T15:39:54.105Z,3.60
2023-03-28T15:42:37.019Z,4.68
2023-03-28T15:45:27.612Z,3.50
2023-03-28T15:47:58.248Z,3.50
2023-03-28T15:50:33.581Z,3.38
2023-03-28T15:53:08.598Z,3.60
2023-03-28T15:55:39.040Z,3.92
2023-03-28T15:58:16.522Z,8.02
2023-03-28T16:00:49.816Z,4.15
2023-03-28T16:03:35.014Z,5.13
2023-03-28T16:06:26.605Z,6.13
2023-03-28T16:09:16.186Z,3.50
2023-03-28T16:11:46.627Z,4.13
2023-03-28T16:14:53.339Z,4.28
2023-03-28T16:17:43.249Z,3.85
2023-03-28T16:20:36.545Z,4.30
2023-03-28T16:23:08.612Z,3.30
2023-03-28T16:25:39.443Z,5.68
2023-03-28T16:28:09.757Z,3.70
2023-03-28T16:30:42.741Z,4.45
2023-03-28T16:33:12.376Z,5.53
2023-03-28T16:35:42.109Z,3.95
2023-03-28T16:38:13.417Z,6.50
2023-03-28T16:40:43.332Z,4.05
2023-03-28T16:43:15.811Z,3.65
2023-03-28T16:45:50.557Z,4.65
2023-03-28T16:48:22.270Z,3.85
2023-03-28T16:50:56.210Z,3.38
2023-03-28T16:53:26.824Z,5.30
2023-03-28T16:55:56.735Z,3.88
2023-03-28T16:58:28.412Z,4.03
2023-03-28T17:01:06.827Z,4.15
2023-03-28T17:03:37.310Z,3.95
2023-03-28T17:06:10.114Z,3.75
2023-03-28T17:08:40.485Z,5.05
2023-03-28T17:11:12.316Z,4.13
2023-03-28T17:13:43.853Z,4.57
2023-03-28T17:16:15.775Z,5.07
2023-03-28T17:18:46.760Z,4.70
2023-03-28T17:21:18.324Z,6.23
2023-03-28T17:23:51.256Z,4.33
2023-03-28T17:26:22.650Z,4.37
2023-03-28T17:28:52.662Z,5.07
2023-03-28T17:31:26.370Z,4.97
2023-03-28T17:33:57.209Z,7.73
2023-03-28T17:36:29.270Z,5.80
2023-03-28T17:39:00.731Z,5.83
2023-03-28T17:41:31.763Z,4.90
2023-03-28T17:44:02.701Z,7.23
2023-03-28T17:46:34.858Z,6.87
2023-03-28T17:49:08.577Z,8.33
2023-03-28T17:52:03.633Z,9.43
2023-03-28T17:54:33.789Z,9.43
2023-03-28T17:57:10.527Z,6.97
2023-03-28T17:59:40.886Z,7.60
2023-03-28T18:02:13.313Z,8.67
2023-03-28T18:04:43.780Z,8.53
2023-03-28T18:07:19.736Z,8.63
2023-03-28T18:09:50.256Z,7.93
2023-03-28T18:12:20.904Z,7.30
2023-03-28T18:14:51.337Z,14.50
2023-03-28T18:17:23.521Z,23.67
2023-03-28T18:19:53.646Z,27.30
2023-03-28T18:22:24.668Z,20.97
2023-03-28T18:24:57.024Z,18.60
2023-03-28T18:27:28.576Z,15.23
2023-03-28T18:29:59.930Z,13.47
2023-03-28T18:32:31.692Z,13.03
2023-03-28T18:35:03.143Z,16.27
2023-03-28T18:37:33.464Z,16.67
2023-03-28T18:40:07.768Z,14.37
2023-03-28T18:51:11.438Z,17.17
2023-03-28T18:53:48.099Z,16.03
2023-03-28T18:56:24.993Z,13.80
2023-03-28T18:59:00.900Z,13.60
2023-03-28T19:01:37.647Z,15.10
2023-03-28T19:04:14.302Z,15.57
2023-03-28T19:06:51.177Z,22.67
2023-03-28T19:09:28.242Z,18.10
2023-03-28T19:12:04.993Z,22.57
2023-03-28T19:14:42.934Z,20.93
2023-03-28T19:17:20.102Z,21.03
2023-03-28T19:19:57.311Z,22.77
2023-03-28T19:22:37.258Z,26.53
2023-03-28T19:25:31.931Z,18.63
2023-03-28T19:28:10.517Z,16.33
2023-03-28T19:30:51.502Z,16.30
2023-03-28T19:33:29.229Z,15.67
2023-03-28T19:36:07.473Z,13.73
2023-03-28T19:38:48.208Z,13.47
2023-03-28T19:41:26.720Z,12.40
2023-03-28T19:44:02.470Z,11.30
2023-03-28T19:46:38.642Z,11.20
2023-03-28T19:49:13.359Z,10.50
2023-03-28T19:51:51.457Z,9.60
2023-03-28T19:54:28.042Z,10.37
2023-03-28T19:57:03.635Z,9.73
2023-03-28T19:59:38.845Z,11.50
2023-03-28T20:02:15.692Z,9.77
2023-03-28T20:04:49.325Z,10.70
2023-03-28T20:07:25.765Z,10.00
2023-03-28T20:09:59.256Z,9.40
2023-03-28T20:12:29.797Z,10.37
2023-03-28T20:14:59.913Z,9.30
2023-03-28T20:17:34.596Z,9.80
2023-03-28T20:20:07.620Z,9.50
2023-03-28T20:22:38.344Z,10.60
2023-03-28T20:25:11.239Z,11.60
2023-03-28T20:27:41.149Z,8.83
2023-03-28T20:30:12.299Z,9.17
2023-03-28T20:32:42.265Z,9.77
2023-03-28T20:35:12.742Z,11.80
2023-03-28T20:37:42.769Z,11.63
2023-03-28T20:40:15.534Z,10.10
2023-03-28T20:42:46.680Z,12.87
2023-03-28T20:45:22.678Z,10.20
2023-03-28T20:47:58.966Z,9.63
2023-03-28T20:50:34.338Z,8.83
2023-03-28T20:53:04.269Z,9.00
2023-03-28T20:55:36.733Z,8.93
2023-03-28T20:58:09.205Z,10.20
2023-03-28T21:00:40.668Z,10.30
2023-03-28T21:03:12.683Z,8.70
2023-03-28T21:05:46.531Z,8.17
2023-03-28T21:08:19.918Z,8.53
2023-03-28T21:10:55.779Z,7.80
2023-03-28T21:13:32.040Z,8.10
2023-03-28T21:16:02.999Z,9.33
2023-03-28T21:18:34.942Z,8.80
2023-03-28T21:21:06.680Z,9.00
2023-03-28T21:23:39.381Z,8.80
2023-03-28T21:26:13.488Z,9.47
2023-03-28T21:28:49.015Z,9.27
2023-03-28T21:31:22.286Z,10.33
2023-03-28T21:33:52.561Z,10.40
2023-03-28T21:36:25.751Z,9.13
2023-03-28T21:38:55.889Z,12.77
2023-03-28T21:41:28.740Z,8.70
2023-03-28T21:44:09.307Z,10.60
2023-03-28T21:46:39.631Z,9.67
2023-03-28T21:49:11.907Z,8.50
2023-03-28T21:51:42.327Z,8.40
2023-03-28T21:54:12.440Z,11.43
2023-03-28T21:56:44.129Z,12.23
2023-03-28T21:59:13.895Z,11.87
2023-03-28T22:01:43.616Z,10.97
2023-03-28T22:04:13.427Z,9.40
2023-03-28T22:06:43.552Z,9.07
2023-03-28T22:09:13.469Z,8.20
2023-03-28T22:11:47.178Z,10.40
2023-03-28T22:14:17.932Z,8.87
2023-03-28T22:16:48.123Z,7.80
2023-03-28T22:19:19.064Z,8.07
2023-03-28T22:21:49.904Z,8.13
2023-03-28T22:24:19.621Z,10.57
2023-03-28T22:26:51.264Z,8.77
2023-03-28T22:29:20.879Z,7.73
2023-03-28T22:31:51.038Z,7.87
2023-03-28T22:34:22.036Z,7.67
2023-03-28T22:36:52.143Z,6.93
2023-03-28T22:39:23.006Z,8.17
2023-03-28T22:41:54.539Z,8.83
2023-03-28T22:44:27.129Z,8.27
2023-03-28T22:47:02.976Z,9.53
2023-03-28T22:49:34.522Z,8.10
2023-03-28T22:52:05.558Z,9.93
2023-03-28T22:54:36.904Z,8.30
2023-03-28T22:57:08.965Z,8.73
2023-03-28T22:59:38.894Z,7.83
2023-03-28T23:02:09.140Z,8.73
2023-03-28T23:04:39.028Z,12.03
2023-03-28T23:07:09.663Z,7.67
2023-03-28T23:09:39.575Z,7.50
2023-03-28T23:12:11.328Z,7.60
2023-03-28T23:14:41.839Z,7.40
2023-03-28T23:17:11.880Z,7.97
2023-03-28T23:19:42.802Z,7.97
2023-03-28T23:22:13.017Z,7.97
2023-03-28T23:24:43.249Z,8.73
2023-03-28T23:27:14.902Z,7.90
2023-03-28T23:29:45.124Z,8.03
2023-03-28T23:32:15.043Z,9.73
2023-03-28T23:34:45.045Z,8.67
2023-03-28T23:37:15.174Z,8.17
2023-03-28T23:39:45.405Z,10.93
2023-03-28T23:42:16.859Z,8.53
2023-03-28T23:44:47.069Z,10.83
2023-03-28T23:47:17.378Z,8.00
2023-03-28T23:49:47.498Z,8.30
2023-03-28T23:52:17.939Z,8.20
2023-03-28T23:54:48.157Z,8.13
2023-03-28T23:57:19.731Z,9.77
2023-03-28T23:59:49.619Z,8.10
